sensor_id;sensor_type;location;lat;lon;timestamp;pressure;altitude;pressure_sealevel;temperature;humidity
73306;BME280;61530;51.158;0.880;2022-07-23T00:00:48;1016.03;;;18.125;39.5956
73306;BME280;61530;51.158;0.880;2022-07-23T00:01:50;1016.04;;;18.0625;40.0433
73306;BME280;61530;51.158;0.880;2022-07-23T00:02:51;1016.06;;;18.125;39.3858
73306;BME280;61530;51.158;0.880;2022-07-23T00:03:51;1016.09;;;18.0625;38.81
73306;BME280;61530;51.158;0.880;2022-07-23T00:04:52;1016.09;;;18.0;38.7578
73306;BME280;61530;51.158;0.880;2022-07-23T00:05:53;1016.08;;;18.0625;39.7237
73306;BME280;61530;51.158;0.880;2022-07-23T00:06:53;1016.06;;;18.0;39.7762
73306;BME280;61530;51.158;0.880;2022-07-23T00:07:53;1016.06;;;18.0;40.2993
73306;BME280;61530;51.158;0.880;2022-07-23T00:08:54;1016.07;;;18.0;40.4678
73306;BME280;61530;51.158;0.880;2022-07-23T00:09:54;1016.04;;;18.0;40.0495
73306;BME280;61530;51.158;0.880;2022-07-23T00:10:55;1016.0;;;18.0;39.8691
73306;BME280;61530;51.158;0.880;2022-07-23T00:11:56;1016.0;;;18.0625;39.9098
73306;BME280;61530;51.158;0.880;2022-07-23T00:13:02;1015.98;;;18.0625;40.1539
73306;BME280;61530;51.158;0.880;2022-07-23T00:14:04;1016.0;;;18.0625;40.2296
73306;BME280;61530;51.158;0.880;2022-07-23T00:15:06;1016.01;;;18.125;40.5086
73306;BME280;61530;51.158;0.880;2022-07-23T00:16:06;1016.0;;;18.0625;40.9093
73306;BME280;61530;51.158;0.880;2022-07-23T00:17:06;1016.01;;;18.0;40.5493
73306;BME280;61530;51.158;0.880;2022-07-23T00:18:06;1015.99;;;18.0625;40.6189
73306;BME280;61530;51.158;0.880;2022-07-23T00:19:07;1015.98;;;18.0625;40.9093
73306;BME280;61530;51.158;0.880;2022-07-23T00:20:13;1015.96;;;18.0;40.5493
73306;BME280;61530;51.158;0.880;2022-07-23T00:21:15;1015.93;;;18.0;40.8686
73306;BME280;61530;51.158;0.880;2022-07-23T00:22:16;1015.95;;;17.9375;40.8686
73306;BME280;61530;51.158;0.880;2022-07-23T00:23:16;1015.92;;;17.9375;40.7293
73306;BME280;61530;51.158;0.880;2022-07-23T00:24:17;1015.92;;;18.0;41.2809
73306;BME280;61530;51.158;0.880;2022-07-23T00:25:18;1015.89;;;17.9375;40.4911
73306;BME280;61530;51.158;0.880;2022-07-23T00:26:18;1015.88;;;17.9375;39.4341
73306;BME280;61530;51.158;0.880;2022-07-23T00:27:24;1015.85;;;17.9375;40.799
73306;BME280;61530;51.158;0.880;2022-07-23T00:28:24;1015.85;;;17.9375;40.828
73306;BME280;61530;51.158;0.880;2022-07-23T00:29:25;1015.83;;;17.9375;40.619
73306;BME280;61530;51.158;0.880;2022-07-23T00:30:25;1015.82;;;17.875;41.0022
73306;BME280;61530;51.158;0.880;2022-07-23T00:31:26;1015.82;;;17.875;40.9441
73306;BME280;61530;51.158;0.880;2022-07-23T00:32:26;1015.81;;;17.875;41.0776
73306;BME280;61530;51.158;0.880;2022-07-23T00:33:16;1015.83;;;17.8125;41.0544
73306;BME280;61530;51.158;0.880;2022-07-23T00:34:16;1015.82;;;17.875;40.619
73306;BME280;61530;51.158;0.880;2022-07-23T00:35:20;1015.82;;;17.8125;40.8745
73306;BME280;61530;51.158;0.880;2022-07-23T00:36:17;1015.8;;;17.8125;41.2517
73306;BME280;61530;51.158;0.880;2022-07-23T00:37:18;1015.82;;;17.8125;41.2982
73306;BME280;61530;51.158;0.880;2022-07-23T00:38:18;1015.79;;;17.8125;41.1356
73306;BME280;61530;51.158;0.880;2022-07-23T00:39:19;1015.79;;;17.8125;40.799
73306;BME280;61530;51.158;0.880;2022-07-23T00:40:21;1015.78;;;17.8125;41.0544
73306;BME280;61530;51.158;0.880;2022-07-23T00:41:22;1015.76;;;17.8125;40.7584
73306;BME280;61530;51.158;0.880;2022-07-23T00:42:27;1015.74;;;17.75;41.0369
73306;BME280;61530;51.158;0.880;2022-07-23T00:43:28;1015.74;;;17.75;40.8745
73306;BME280;61530;51.158;0.880;2022-07-23T00:44:29;1015.75;;;17.625;40.8048
73306;BME280;61530;51.158;0.880;2022-07-23T00:45:29;1015.74;;;17.5625;40.9383
73306;BME280;61530;51.158;0.880;2022-07-23T00:46:29;1015.73;;;17.5;40.561
73306;BME280;61530;51.158;0.880;2022-07-23T00:47:30;1015.73;;;17.375;41.1472
73306;BME280;61530;51.158;0.880;2022-07-23T00:48:31;1015.69;;;17.4375;40.9731
73306;BME280;61530;51.158;0.880;2022-07-23T00:49:31;1015.69;;;17.4375;41.4139
73306;BME280;61530;51.158;0.880;2022-07-23T00:50:31;1015.68;;;17.4375;41.4545
73306;BME280;61530;51.158;0.880;2022-07-23T00:51:32;1015.7;;;17.5;41.8255
73306;BME280;61530;51.158;0.880;2022-07-23T00:52:33;1015.7;;;17.625;41.5241
73306;BME280;61530;51.158;0.880;2022-07-23T00:53:33;1015.69;;;17.625;41.2979
73306;BME280;61530;51.158;0.880;2022-07-23T00:54:34;1015.69;;;17.625;41.3964
73306;BME280;61530;51.158;0.880;2022-07-23T00:55:40;1015.67;;;17.625;40.9325
73306;BME280;61530;51.158;0.880;2022-07-23T00:56:41;1015.67;;;17.625;41.5241
73306;BME280;61530;51.158;0.880;2022-07-23T00:57:41;1015.66;;;17.6875;42.0804
73306;BME280;61530;51.158;0.880;2022-07-23T00:58:43;1015.67;;;17.75;41.8602
73306;BME280;61530;51.158;0.880;2022-07-23T00:59:43;1015.7;;;17.6875;41.8657
73306;BME280;61530;51.158;0.880;2022-07-23T01:00:43;1015.71;;;17.75;42.1437
73306;BME280;61530;51.158;0.880;2022-07-23T01:01:44;1015.73;;;17.6875;42.3869
73306;BME280;61530;51.158;0.880;2022-07-23T01:02:44;1015.77;;;17.8125;42.5199
73306;BME280;61530;51.158;0.880;2022-07-23T01:03:45;1015.79;;;17.6875;42.0509
73306;BME280;61530;51.158;0.880;2022-07-23T01:04:45;1015.78;;;17.625;42.1262
73306;BME280;61530;51.158;0.880;2022-07-23T01:05:46;1015.76;;;17.6875;42.734
73306;BME280;61530;51.158;0.880;2022-07-23T01:06:46;1015.77;;;17.6875;42.4792
73306;BME280;61530;51.158;0.880;2022-07-23T01:07:48;1015.75;;;17.6875;42.7976
73306;BME280;61530;51.158;0.880;2022-07-23T01:08:54;1015.77;;;17.625;42.2076
73306;BME280;61530;51.158;0.880;2022-07-23T01:09:55;1015.77;;;17.6875;42.7285
73306;BME280;61530;51.158;0.880;2022-07-23T01:10:54;1015.8;;;17.625;42.2534
73306;BME280;61530;51.158;0.880;2022-07-23T01:11:55;1015.8;;;17.625;42.5661
73306;BME280;61530;51.158;0.880;2022-07-23T01:12:56;1015.81;;;17.6875;42.5546
73306;BME280;61530;51.158;0.880;2022-07-23T01:13:55;1015.82;;;17.6875;42.1843
73306;BME280;61530;51.158;0.880;2022-07-23T01:14:57;1015.86;;;17.6875;41.9817
73306;BME280;61530;51.158;0.880;2022-07-23T01:16:05;1015.85;;;17.5625;41.5587
73306;BME280;61530;51.158;0.880;2022-07-23T01:17:10;1015.84;;;17.5625;41.5761
73306;BME280;61530;51.158;0.880;2022-07-23T01:18:16;1015.87;;;17.5625;41.8891
73306;BME280;61530;51.158;0.880;2022-07-23T01:19:17;1015.84;;;17.5625;41.6051
73306;BME280;61530;51.158;0.880;2022-07-23T01:20:17;1015.86;;;17.5;42.0802
73306;BME280;61530;51.158;0.880;2022-07-23T01:21:19;1015.86;;;17.5625;42.0221
73306;BME280;61530;51.158;0.880;2022-07-23T01:22:20;1015.86;;;17.5625;42.1958
73306;BME280;61530;51.158;0.880;2022-07-23T01:23:20;1015.85;;;17.5625;42.4852
73306;BME280;61530;51.158;0.880;2022-07-23T01:24:21;1015.87;;;17.5625;42.1727
73306;BME280;61530;51.158;0.880;2022-07-23T01:25:27;1015.89;;;17.5625;42.4853
73306;BME280;61530;51.158;0.880;2022-07-23T01:26:27;1015.9;;;17.5625;42.3174
73306;BME280;61530;51.158;0.880;2022-07-23T01:27:27;1015.91;;;17.5625;42.0218
73306;BME280;61530;51.158;0.880;2022-07-23T01:28:28;1015.91;;;17.5625;42.4216
73306;BME280;61530;51.158;0.880;2022-07-23T01:29:28;1015.93;;;17.5;42.1262
73306;BME280;61530;51.158;0.880;2022-07-23T01:30:29;1015.92;;;17.625;42.219
73306;BME280;61530;51.158;0.880;2022-07-23T01:31:30;1015.93;;;17.5625;42.2594
73306;BME280;61530;51.158;0.880;2022-07-23T01:32:30;1015.95;;;17.5;42.1841
73306;BME280;61530;51.158;0.880;2022-07-23T01:33:31;1015.92;;;17.5625;42.5025
73306;BME280;61530;51.158;0.880;2022-07-23T01:34:32;1015.91;;;17.625;41.8597
73306;BME280;61530;51.158;0.880;2022-07-23T01:35:32;1015.93;;;17.5;41.9179
73306;BME280;61530;51.158;0.880;2022-07-23T01:36:33;1015.92;;;17.5;41.8773
73306;BME280;61530;51.158;0.880;2022-07-23T01:37:34;1015.92;;;17.5625;42.1032
73306;BME280;61530;51.158;0.880;2022-07-23T01:38:40;1015.92;;;17.5;42.1204
73306;BME280;61530;51.158;0.880;2022-07-23T01:39:40;1015.92;;;17.5;42.022
73306;BME280;61530;51.158;0.880;2022-07-23T01:40:41;1015.92;;;17.5;42.6008
73306;BME280;61530;51.158;0.880;2022-07-23T01:41:41;1015.92;;;17.5;42.8378
73306;BME280;61530;51.158;0.880;2022-07-23T01:42:42;1015.91;;;17.5;42.8843
73306;BME280;61530;51.158;0.880;2022-07-23T01:43:43;1015.93;;;17.5;42.7513
73306;BME280;61530;51.158;0.880;2022-07-23T01:44:45;1015.93;;;17.5;42.6586
73306;BME280;61530;51.158;0.880;2022-07-23T01:45:45;1015.93;;;17.5;42.6122
73306;BME280;61530;51.158;0.880;2022-07-23T01:46:46;1015.97;;;17.5;42.9651
73306;BME280;61530;51.158;0.880;2022-07-23T01:47:48;1015.99;;;17.5625;42.9244
73306;BME280;61530;51.158;0.880;2022-07-23T01:48:49;1016.0;;;17.5625;42.7335
73306;BME280;61530;51.158;0.880;2022-07-23T01:49:49;1016.0;;;17.5625;42.9822
73306;BME280;61530;51.158;0.880;2022-07-23T01:50:50;1016.0;;;17.5;43.2136
73306;BME280;61530;51.158;0.880;2022-07-23T01:51:56;1016.02;;;17.5;42.8085
73306;BME280;61530;51.158;0.880;2022-07-23T01:52:56;1015.99;;;17.5;43.1791
73306;BME280;61530;51.158;0.880;2022-07-23T01:53:57;1015.99;;;17.4375;43.2596
73306;BME280;61530;51.158;0.880;2022-07-23T01:54:57;1015.97;;;17.5625;42.913
73306;BME280;61530;51.158;0.880;2022-07-23T01:55:58;1015.99;;;17.5;42.855
73306;BME280;61530;51.158;0.880;2022-07-23T01:56:59;1015.99;;;17.5625;42.3054
73306;BME280;61530;51.158;0.880;2022-07-23T01:57:59;1015.98;;;17.4375;41.9523
73306;BME280;61530;51.158;0.880;2022-07-23T01:58:59;1015.99;;;17.375;42.3752
73306;BME280;61530;51.158;0.880;2022-07-23T02:00:00;1015.97;;;17.375;42.051
73306;BME280;61530;51.158;0.880;2022-07-23T02:01:00;1016.0;;;17.4375;42.3003
73306;BME280;61530;51.158;0.880;2022-07-23T02:02:01;1015.98;;;17.4375;41.9352
73306;BME280;61530;51.158;0.880;2022-07-23T02:03:01;1015.96;;;17.4375;42.2771
73306;BME280;61530;51.158;0.880;2022-07-23T02:04:02;1015.97;;;17.5;42.422
73306;BME280;61530;51.158;0.880;2022-07-23T02:05:08;1015.95;;;17.5;42.2542
73306;BME280;61530;51.158;0.880;2022-07-23T02:06:08;1015.94;;;17.5625;42.231
73306;BME280;61530;51.158;0.880;2022-07-23T02:07:09;1015.95;;;17.5625;41.9529
73306;BME280;61530;51.158;0.880;2022-07-23T02:08:09;1015.92;;;17.5625;42.3182
73306;BME280;61530;51.158;0.880;2022-07-23T02:09:10;1015.93;;;17.5;41.9299
73306;BME280;61530;51.158;0.880;2022-07-23T02:10:10;1015.93;;;17.5;41.7096
73306;BME280;61530;51.158;0.880;2022-07-23T02:11:11;1015.92;;;17.5;41.3966
73306;BME280;61530;51.158;0.880;2022-07-23T02:12:17;1015.9;;;17.4375;41.211
73306;BME280;61530;51.158;0.880;2022-07-23T02:13:23;1015.89;;;17.375;41.2342
73306;BME280;61530;51.158;0.880;2022-07-23T02:14:23;1015.88;;;17.4375;40.9963
73306;BME280;61530;51.158;0.880;2022-07-23T02:15:24;1015.86;;;17.375;41.4139
73306;BME280;61530;51.158;0.880;2022-07-23T02:16:24;1015.86;;;17.4375;41.6749
73306;BME280;61530;51.158;0.880;2022-07-23T02:17:25;1015.85;;;17.375;41.6285
73306;BME280;61530;51.158;0.880;2022-07-23T02:18:25;1015.84;;;17.375;41.872
73306;BME280;61530;51.158;0.880;2022-07-23T02:19:26;1015.85;;;17.375;41.3328
73306;BME280;61530;51.158;0.880;2022-07-23T02:20:26;1015.83;;;17.375;41.3037
73306;BME280;61530;51.158;0.880;2022-07-23T02:21:27;1015.83;;;17.3125;41.3908
73306;BME280;61530;51.158;0.880;2022-07-23T02:22:27;1015.84;;;17.3125;40.5495
73306;BME280;61530;51.158;0.880;2022-07-23T02:23:28;1015.85;;;17.3125;41.1239
73306;BME280;61530;51.158;0.880;2022-07-23T02:24:30;1015.84;;;17.3125;41.9183
73306;BME280;61530;51.158;0.880;2022-07-23T02:25:31;1015.9;;;17.375;42.2366
73306;BME280;61530;51.158;0.880;2022-07-23T02:26:36;1015.86;;;17.3125;42.109
73306;BME280;61530;51.158;0.880;2022-07-23T02:27:37;1015.87;;;17.4375;42.4738
73306;BME280;61530;51.158;0.880;2022-07-23T02:28:37;1015.86;;;17.4375;42.9371
73306;BME280;61530;51.158;0.880;2022-07-23T02:29:40;1015.88;;;17.5;42.6364
73306;BME280;61530;51.158;0.880;2022-07-23T02:30:40;1015.84;;;17.5;41.8138
73306;BME280;61530;51.158;0.880;2022-07-23T02:31:41;1015.84;;;17.4375;42.2889
73306;BME280;61530;51.158;0.880;2022-07-23T02:32:41;1015.85;;;17.4375;42.0976
73306;BME280;61530;51.158;0.880;2022-07-23T02:33:42;1015.86;;;17.4375;42.225
73306;BME280;61530;51.158;0.880;2022-07-23T02:34:42;1015.85;;;17.4375;42.0743
73306;BME280;61530;51.158;0.880;2022-07-23T02:35:43;1015.84;;;17.3125;41.6282
73306;BME280;61530;51.158;0.880;2022-07-23T02:36:43;1015.86;;;17.1875;41.802
73306;BME280;61530;51.158;0.880;2022-07-23T02:37:44;1015.88;;;17.1875;42.2481
73306;BME280;61530;51.158;0.880;2022-07-23T02:38:45;1015.92;;;17.0625;41.9874
73306;BME280;61530;51.158;0.880;2022-07-23T02:39:50;1015.91;;;17.0;42.1382
73306;BME280;61530;51.158;0.880;2022-07-23T02:40:52;1015.92;;;17.0625;42.4159
73306;BME280;61530;51.158;0.880;2022-07-23T02:41:54;1015.92;;;17.0625;42.4043
73306;BME280;61530;51.158;0.880;2022-07-23T02:42:55;1015.92;;;17.1875;41.8828
73306;BME280;61530;51.158;0.880;2022-07-23T02:43:55;1015.93;;;17.1875;41.7033
73306;BME280;61530;51.158;0.880;2022-07-23T02:44:56;1015.93;;;17.1875;42.3927
73306;BME280;61530;51.158;0.880;2022-07-23T02:45:56;1015.92;;;17.1875;42.2768
73306;BME280;61530;51.158;0.880;2022-07-23T02:46:56;1015.92;;;17.125;42.1258
73306;BME280;61530;51.158;0.880;2022-07-23T02:47:57;1015.91;;;17.25;42.3344
73306;BME280;61530;51.158;0.880;2022-07-23T02:48:58;1015.92;;;17.25;42.2881
73306;BME280;61530;51.158;0.880;2022-07-23T02:49:58;1015.92;;;17.25;42.7277
73306;BME280;61530;51.158;0.880;2022-07-23T02:50:59;1015.91;;;17.3125;42.9477
73306;BME280;61530;51.158;0.880;2022-07-23T02:51:59;1015.88;;;17.3125;42.7102
73306;BME280;61530;51.158;0.880;2022-07-23T02:53:00;1015.88;;;17.3125;42.9243
73306;BME280;61530;51.158;0.880;2022-07-23T02:54:00;1015.9;;;17.3125;42.2589
73306;BME280;61530;51.158;0.880;2022-07-23T02:55:01;1015.87;;;17.3125;41.8943
73306;BME280;61530;51.158;0.880;2022-07-23T02:56:01;1015.85;;;17.25;41.9581
73306;BME280;61530;51.158;0.880;2022-07-23T02:57:02;1015.85;;;17.25;42.369
73306;BME280;61530;51.158;0.880;2022-07-23T02:58:03;1015.84;;;17.3125;42.6698
73306;BME280;61530;51.158;0.880;2022-07-23T02:59:03;1015.85;;;17.3125;42.4152
73306;BME280;61530;51.158;0.880;2022-07-23T03:00:06;1015.86;;;17.3125;42.2994
73306;BME280;61530;51.158;0.880;2022-07-23T03:01:10;1015.84;;;17.3125;42.6117
73306;BME280;61530;51.158;0.880;2022-07-23T03:02:15;1015.85;;;17.3125;42.4436
73306;BME280;61530;51.158;0.880;2022-07-23T03:03:16;1015.85;;;17.375;43.1143
73306;BME280;61530;51.158;0.880;2022-07-23T03:04:16;1015.84;;;17.375;43.1199
73306;BME280;61530;51.158;0.880;2022-07-23T03:05:16;1015.88;;;17.375;43.0848
73306;BME280;61530;51.158;0.880;2022-07-23T03:06:17;1015.85;;;17.4375;42.8249
73306;BME280;61530;51.158;0.880;2022-07-23T03:07:18;1015.85;;;17.25;42.1479
73306;BME280;61530;51.158;0.880;2022-07-23T03:08:20;1015.84;;;17.1875;42.1193
73306;BME280;61530;51.158;0.880;2022-07-23T03:09:26;1015.85;;;17.0625;43.1199
73306;BME280;61530;51.158;0.880;2022-07-23T03:10:28;1015.83;;;17.0;43.0158
73306;BME280;61530;51.158;0.880;2022-07-23T03:11:29;1015.83;;;17.0;43.1887
73306;BME280;61530;51.158;0.880;2022-07-23T03:12:29;1015.8;;;17.125;42.8243
73306;BME280;61530;51.158;0.880;2022-07-23T03:13:29;1015.82;;;17.125;43.7204
73306;BME280;61530;51.158;0.880;2022-07-23T03:14:30;1015.79;;;17.125;43.6216
73306;BME280;61530;51.158;0.880;2022-07-23T03:15:31;1015.81;;;17.1875;43.1304
73306;BME280;61530;51.158;0.880;2022-07-23T03:16:31;1015.83;;;17.0625;42.5872
73306;BME280;61530;51.158;0.880;2022-07-23T03:17:31;1015.83;;;16.9375;42.3155
73306;BME280;61530;51.158;0.880;2022-07-23T03:18:32;1015.83;;;16.875;42.6102
73306;BME280;61530;51.158;0.880;2022-07-23T03:19:32;1015.84;;;16.8125;42.5293
73306;BME280;61530;51.158;0.880;2022-07-23T03:20:32;1015.88;;;16.8125;42.888
73306;BME280;61530;51.158;0.880;2022-07-23T03:21:35;1015.91;;;16.875;42.8072
73306;BME280;61530;51.158;0.880;2022-07-23T03:22:40;1015.91;;;16.875;43.1306
73306;BME280;61530;51.158;0.880;2022-07-23T03:23:46;1015.93;;;16.9375;43.385
73306;BME280;61530;51.158;0.880;2022-07-23T03:24:48;1015.94;;;16.9375;42.4138
73306;BME280;61530;51.158;0.880;2022-07-23T03:25:48;1015.94;;;16.9375;42.6798
73306;BME280;61530;51.158;0.880;2022-07-23T03:26:49;1015.95;;;16.9375;42.6913
73306;BME280;61530;51.158;0.880;2022-07-23T03:27:49;1015.98;;;17.0;42.6685
73306;BME280;61530;51.158;0.880;2022-07-23T03:28:49;1015.98;;;17.0;42.1881
73306;BME280;61530;51.158;0.880;2022-07-23T03:29:51;1016.0;;;17.0625;42.4717
73306;BME280;61530;51.158;0.880;2022-07-23T03:30:57;1015.97;;;17.0;42.818
73306;BME280;61530;51.158;0.880;2022-07-23T03:32:03;1015.99;;;17.125;43.2287
73306;BME280;61530;51.158;0.880;2022-07-23T03:33:03;1016.0;;;17.0625;42.8297
73306;BME280;61530;51.158;0.880;2022-07-23T03:34:03;1016.02;;;17.125;42.2748
73306;BME280;61530;51.158;0.880;2022-07-23T03:35:04;1016.01;;;17.0;42.6159
73306;BME280;61530;51.158;0.880;2022-07-23T03:36:05;1016.02;;;17.0;42.726
73306;BME280;61530;51.158;0.880;2022-07-23T03:37:05;1016.02;;;16.9375;42.865
73306;BME280;61530;51.158;0.880;2022-07-23T03:38:06;1016.01;;;17.0;42.6626
73306;BME280;61530;51.158;0.880;2022-07-23T03:39:12;1015.99;;;17.0;42.3677
73306;BME280;61530;51.158;0.880;2022-07-23T03:40:12;1016.01;;;17.0;42.2984
73306;BME280;61530;51.158;0.880;2022-07-23T03:41:12;1016.0;;;17.0;42.5759
73306;BME280;61530;51.158;0.880;2022-07-23T03:42:13;1015.99;;;17.0625;42.2751
73306;BME280;61530;51.158;0.880;2022-07-23T03:43:13;1015.96;;;17.0;42.2406
73306;BME280;61530;51.158;0.880;2022-07-23T03:44:14;1015.93;;;17.0;41.905
73306;BME280;61530;51.158;0.880;2022-07-23T03:45:15;1015.94;;;16.9375;42.6975
73306;BME280;61530;51.158;0.880;2022-07-23T03:46:21;1015.95;;;16.875;42.7669
73306;BME280;61530;51.158;0.880;2022-07-23T03:47:26;1015.91;;;16.875;42.391
73306;BME280;61530;51.158;0.880;2022-07-23T03:48:27;1015.9;;;16.9375;42.7264
73306;BME280;61530;51.158;0.880;2022-07-23T03:49:27;1015.89;;;17.0;42.998
73306;BME280;61530;51.158;0.880;2022-07-23T03:50:28;1015.86;;;17.0;42.9114
73306;BME280;61530;51.158;0.880;2022-07-23T03:51:28;1015.87;;;17.0625;43.669
73306;BME280;61530;51.158;0.880;2022-07-23T03:52:28;1015.84;;;17.0625;42.5644
73306;BME280;61530;51.158;0.880;2022-07-23T03:53:30;1015.82;;;17.0625;43.3967
73306;BME280;61530;51.158;0.880;2022-07-23T03:54:30;1015.83;;;17.125;43.6105
73306;BME280;61530;51.158;0.880;2022-07-23T03:55:30;1015.82;;;17.0625;43.119
73306;BME280;61530;51.158;0.880;2022-07-23T03:56:31;1015.79;;;17.125;43.4886
73306;BME280;61530;51.158;0.880;2022-07-23T03:57:31;1015.8;;;17.1875;43.5004
73306;BME280;61530;51.158;0.880;2022-07-23T03:58:32;1015.8;;;17.1875;43.685
73306;BME280;61530;51.158;0.880;2022-07-23T03:59:33;1015.78;;;17.125;43.4711
73306;BME280;61530;51.158;0.880;2022-07-23T04:00:35;1015.77;;;17.0625;43.3956
73306;BME280;61530;51.158;0.880;2022-07-23T04:01:36;1015.77;;;17.125;43.0606
73306;BME280;61530;51.158;0.880;2022-07-23T04:02:36;1015.79;;;17.0;42.8647
73306;BME280;61530;51.158;0.880;2022-07-23T04:03:36;1015.75;;;17.0;42.7543
73306;BME280;61530;51.158;0.880;2022-07-23T04:04:37;1015.78;;;16.9375;43.3489
73306;BME280;61530;51.158;0.880;2022-07-23T04:05:38;1015.8;;;17.0;44.0415
73306;BME280;61530;51.158;0.880;2022-07-23T04:06:38;1015.77;;;17.0;42.7479
73306;BME280;61530;51.158;0.880;2022-07-23T04:07:39;1015.78;;;16.875;43.1817
73306;BME280;61530;51.158;0.880;2022-07-23T04:08:38;1015.8;;;16.8125;43.2106
73306;BME280;61530;51.158;0.880;2022-07-23T04:09:39;1015.8;;;16.75;44.0191
73306;BME280;61530;51.158;0.880;2022-07-23T04:10:40;1015.82;;;16.75;43.4459
73306;BME280;61530;51.158;0.880;2022-07-23T04:11:40;1015.82;;;16.8125;43.5553
73306;BME280;61530;51.158;0.880;2022-07-23T04:12:41;1015.81;;;16.875;43.6937
73306;BME280;61530;51.158;0.880;2022-07-23T04:13:41;1015.81;;;16.875;43.7404
73306;BME280;61530;51.158;0.880;2022-07-23T04:14:42;1015.81;;;16.9375;43.0065
73306;BME280;61530;51.158;0.880;2022-07-23T04:15:42;1015.81;;;16.875;43.3301
73306;BME280;61530;51.158;0.880;2022-07-23T04:16:43;1015.81;;;16.75;43.7802
73306;BME280;61530;51.158;0.880;2022-07-23T04:17:44;1015.79;;;16.6875;44.2475
73306;BME280;61530;51.158;0.880;2022-07-23T04:18:49;1015.81;;;16.6875;43.1105
73306;BME280;61530;51.158;0.880;2022-07-23T04:19:50;1015.8;;;16.6875;43.9303
73306;BME280;61530;51.158;0.880;2022-07-23T04:20:51;1015.79;;;16.75;44.0513
73306;BME280;61530;51.158;0.880;2022-07-23T04:21:51;1015.79;;;16.75;43.798
73306;BME280;61530;51.158;0.880;2022-07-23T04:22:51;1015.81;;;16.75;43.5147
73306;BME280;61530;51.158;0.880;2022-07-23T04:23:52;1015.83;;;16.75;43.6934
73306;BME280;61530;51.158;0.880;2022-07-23T04:24:52;1015.82;;;16.8125;42.9885
73306;BME280;61530;51.158;0.880;2022-07-23T04:25:59;1015.85;;;16.875;44.1662
73306;BME280;61530;51.158;0.880;2022-07-23T04:27:05;1015.88;;;16.875;43.9928
73306;BME280;61530;51.158;0.880;2022-07-23T04:28:05;1015.89;;;16.9375;43.9876
73306;BME280;61530;51.158;0.880;2022-07-23T04:29:05;1015.93;;;16.9375;44.1431
73306;BME280;61530;51.158;0.880;2022-07-23T04:30:07;1015.96;;;16.875;43.7804
73306;BME280;61530;51.158;0.880;2022-07-23T04:31:06;1015.95;;;16.8125;43.434
73306;BME280;61530;51.158;0.880;2022-07-23T04:32:07;1015.95;;;16.75;43.3419
73306;BME280;61530;51.158;0.880;2022-07-23T04:33:08;1015.97;;;16.6875;43.5905
73306;BME280;61530;51.158;0.880;2022-07-23T04:34:08;1016.0;;;16.5625;43.2209
73306;BME280;61530;51.158;0.880;2022-07-23T04:35:09;1015.98;;;16.4375;43.4286
73306;BME280;61530;51.158;0.880;2022-07-23T04:36:09;1015.98;;;16.5;43.8898
73306;BME280;61530;51.158;0.880;2022-07-23T04:37:09;1015.98;;;16.5;43.5602
73306;BME280;61530;51.158;0.880;2022-07-23T04:38:10;1015.97;;;16.625;44.0742
73306;BME280;61530;51.158;0.880;2022-07-23T04:39:11;1015.97;;;16.625;44.6447
73306;BME280;61530;51.158;0.880;2022-07-23T04:40:17;1015.95;;;16.8125;44.6275
73306;BME280;61530;51.158;0.880;2022-07-23T04:41:22;1015.95;;;16.75;44.6109
73306;BME280;61530;51.158;0.880;2022-07-23T04:42:23;1015.95;;;16.75;44.4842
73306;BME280;61530;51.158;0.880;2022-07-23T04:43:23;1015.96;;;16.875;44.1383
73306;BME280;61530;51.158;0.880;2022-07-23T04:44:24;1015.96;;;16.875;44.5772
73306;BME280;61530;51.158;0.880;2022-07-23T04:45:24;1015.96;;;16.875;44.5193
73306;BME280;61530;51.158;0.880;2022-07-23T04:46:25;1015.96;;;16.875;43.5956
73306;BME280;61530;51.158;0.880;2022-07-23T04:47:26;1015.97;;;16.9375;44.2601
73306;BME280;61530;51.158;0.880;2022-07-23T04:48:32;1015.98;;;16.875;44.3064
73306;BME280;61530;51.158;0.880;2022-07-23T04:49:32;1015.99;;;16.9375;43.92
73306;BME280;61530;51.158;0.880;2022-07-23T04:50:32;1016.03;;;16.9375;43.7408
73306;BME280;61530;51.158;0.880;2022-07-23T04:51:33;1016.03;;;16.9375;43.9949
73306;BME280;61530;51.158;0.880;2022-07-23T04:52:33;1016.03;;;17.0;43.6484
73306;BME280;61530;51.158;0.880;2022-07-23T04:53:34;1016.03;;;16.9375;43.8042
73306;BME280;61530;51.158;0.880;2022-07-23T04:54:35;1016.04;;;17.0;44.0524
73306;BME280;61530;51.158;0.880;2022-07-23T04:55:35;1016.04;;;17.0;43.9025
73306;BME280;61530;51.158;0.880;2022-07-23T04:56:35;1016.02;;;16.9375;43.8099
73306;BME280;61530;51.158;0.880;2022-07-23T04:57:36;1016.03;;;17.0;43.244
73306;BME280;61530;51.158;0.880;2022-07-23T04:58:36;1016.04;;;17.0;43.776
73306;BME280;61530;51.158;0.880;2022-07-23T04:59:37;1016.07;;;16.9375;44.1795
73306;BME280;61530;51.158;0.880;2022-07-23T05:00:38;1016.07;;;16.9375;43.7869
73306;BME280;61530;51.158;0.880;2022-07-23T05:01:43;1016.09;;;16.875;43.1866
73306;BME280;61530;51.158;0.880;2022-07-23T05:02:46;1016.07;;;16.9375;43.43
73306;BME280;61530;51.158;0.880;2022-07-23T05:03:46;1016.04;;;16.75;42.9843
73306;BME280;61530;51.158;0.880;2022-07-23T05:04:47;1016.05;;;16.5;43.4625
73306;BME280;61530;51.158;0.880;2022-07-23T05:05:47;1016.07;;;16.25;43.1149
73306;BME280;61530;51.158;0.880;2022-07-23T05:06:48;1016.06;;;16.0;44.8568
73306;BME280;61530;51.158;0.880;2022-07-23T05:07:49;1016.11;;;15.875;44.4475
73306;BME280;61530;51.158;0.880;2022-07-23T05:08:55;1016.08;;;15.875;44.6849
73306;BME280;61530;51.158;0.880;2022-07-23T05:10:00;1016.1;;;15.75;44.7353
73306;BME280;61530;51.158;0.880;2022-07-23T05:11:01;1016.09;;;15.6875;44.458
73306;BME280;61530;51.158;0.880;2022-07-23T05:12:01;1016.11;;;15.5625;44.1734
73306;BME280;61530;51.158;0.880;2022-07-23T05:13:02;1016.12;;;15.4375;45.1816
73306;BME280;61530;51.158;0.880;2022-07-23T05:14:03;1016.13;;;15.375;45.4459
73306;BME280;61530;51.158;0.880;2022-07-23T05:15:03;1016.1;;;15.375;45.855
73306;BME280;61530;51.158;0.880;2022-07-23T05:16:04;1016.1;;;15.3125;44.6564
73306;BME280;61530;51.158;0.880;2022-07-23T05:17:04;1016.1;;;15.375;45.0815